Time;durP1;ratioP1;P1;durP2;ratioP2;P2;SDS_P1;SDS_P2;PMS_P1;PMS_P2;Temp;Humidity;BMP_temperature;BMP_pressure;BME280_temperature;BME280_humidity;BME280_pressure;Samples;Min_cycle;Max_cycle;Signal;HPM_P1;HPM_P2
2023/06/12 00:00:56;;;;;;;9.25;5.88;;;;;;;;;;5007369;28;20038;-76
2023/06/12 00:03:26;;;;;;;10.20;5.90;;;;;;;;;;5007185;28;20625;-78
2023/06/12 00:05:58;;;;;;;12.73;6.32;;;;;;;;;;5006281;28;20041;-78
2023/06/12 00:08:26;;;;;;;11.85;6.50;;;;;;;;;;5008884;28;20065;-78
2023/06/12 00:10:53;;;;;;;10.05;6.80;;;;;;;;;;5008072;28;20510;-78
2023/06/12 00:13:20;;;;;;;12.60;6.78;;;;;;;;;;5008716;28;20100;-76
2023/06/12 00:15:46;;;;;;;9.73;5.95;;;;;;;;;;5008755;28;20046;-76
2023/06/12 00:18:13;;;;;;;12.20;7.05;;;;;;;;;;5007875;28;20067;-76
2023/06/12 00:20:40;;;;;;;10.05;5.85;;;;;;;;;;5008737;28;20113;-79
2023/06/12 00:23:09;;;;;;;9.05;5.40;;;;;;;;;;5020121;28;20050;-77
2023/06/12 00:25:36;;;;;;;9.70;5.55;;;;;;;;;;5019238;28;20030;-78
2023/06/12 00:28:03;;;;;;;12.23;6.63;;;;;;;;;;5019682;28;20126;-78
2023/06/12 00:30:32;;;;;;;11.23;6.20;;;;;;;;;;5012173;28;20458;-76
2023/06/12 00:32:59;;;;;;;12.32;6.88;;;;;;;;;;5010363;28;20126;-78
2023/06/12 00:35:26;;;;;;;11.55;6.95;;;;;;;;;;5010486;28;20112;-78
2023/06/12 00:37:52;;;;;;;14.55;6.80;;;;;;;;;;5011725;28;20117;-77
2023/06/12 00:40:22;;;;;;;13.73;7.20;;;;;;;;;;5007720;28;20123;-77
2023/06/12 00:42:50;;;;;;;12.82;7.30;;;;;;;;;;5005800;28;20058;-77
2023/06/12 00:45:18;;;;;;;14.65;7.22;;;;;;;;;;5007052;28;20077;-77
2023/06/12 00:47:52;;;;;;;10.95;7.55;;;;;;;;;;5008669;28;20062;-77
2023/06/12 00:50:20;;;;;;;13.20;7.50;;;;;;;;;;5005063;28;20456;-77
2023/06/12 00:52:49;;;;;;;13.00;7.63;;;;;;;;;;5012295;28;20049;-78
2023/06/12 00:55:15;;;;;;;10.57;8.02;;;;;;;;;;5008655;28;20053;-78
2023/06/12 00:57:44;;;;;;;18.63;8.07;;;;;;;;;;5006509;28;20084;-78
2023/06/12 01:00:12;;;;;;;11.88;8.02;;;;;;;;;;5009002;28;20054;-77
2023/06/12 01:02:42;;;;;;;11.25;7.60;;;;;;;;;;5007486;28;20056;-77
2023/06/12 01:05:11;;;;;;;9.57;6.72;;;;;;;;;;5006343;28;20049;-78
2023/06/12 01:07:44;;;;;;;12.25;6.72;;;;;;;;;;5008254;28;20402;-78
2023/06/12 01:10:17;;;;;;;11.70;7.53;;;;;;;;;;5009720;28;20534;-78
2023/06/12 01:12:45;;;;;;;14.98;8.10;;;;;;;;;;5010530;28;20073;-77
2023/06/12 01:15:14;;;;;;;11.73;7.15;;;;;;;;;;5008464;28;20081;-77
2023/06/12 01:17:44;;;;;;;14.43;8.60;;;;;;;;;;5005307;28;20050;-77
2023/06/12 01:20:12;;;;;;;13.35;8.00;;;;;;;;;;5006793;28;20058;-78
2023/06/12 01:22:46;;;;;;;12.45;8.15;;;;;;;;;;5007294;28;20061;-76
2023/06/12 01:25:13;;;;;;;14.27;7.85;;;;;;;;;;5004369;28;20044;-76
2023/06/12 01:27:43;;;;;;;10.98;7.97;;;;;;;;;;5009647;28;20136;-78
2023/06/12 01:30:49;;;;;;;12.25;8.25;;;;;;;;;;5007594;28;20771;-78
2023/06/12 01:33:20;;;;;;;21.23;8.23;;;;;;;;;;4968235;28;20246;-77
2023/06/12 01:35:51;;;;;;;16.27;9.15;;;;;;;;;;4984997;28;20553;-77
2023/06/12 01:38:23;;;;;;;11.68;8.32;;;;;;;;;;4988252;28;20065;-78
2023/06/12 01:40:52;;;;;;;13.73;7.85;;;;;;;;;;4989158;28;20605;-78
2023/06/12 01:43:22;;;;;;;14.40;8.90;;;;;;;;;;5006267;28;20045;-77
2023/06/12 01:45:49;;;;;;;14.10;8.70;;;;;;;;;;5005367;28;20049;-77
2023/06/12 01:48:18;;;;;;;12.80;8.57;;;;;;;;;;5008344;28;20053;-77
2023/06/12 01:50:45;;;;;;;13.20;8.57;;;;;;;;;;5004700;28;20046;-78
2023/06/12 01:53:13;;;;;;;12.30;7.75;;;;;;;;;;5010010;28;20095;-78
2023/06/12 01:55:41;;;;;;;12.75;8.50;;;;;;;;;;5005346;28;20104;-77
2023/06/12 01:58:09;;;;;;;15.15;8.52;;;;;;;;;;5005925;28;20045;-77
2023/06/12 02:01:05;;;;;;;13.20;8.90;;;;;;;;;;5004401;28;20084;-78
2023/06/12 02:03:37;;;;;;;12.93;7.85;;;;;;;;;;5005557;28;20177;-77
2023/06/12 02:06:04;;;;;;;13.00;8.00;;;;;;;;;;5006086;28;20042;-77
2023/06/12 02:08:30;;;;;;;13.07;8.07;;;;;;;;;;5005945;28;20104;-78
2023/06/12 02:10:57;;;;;;;15.05;8.05;;;;;;;;;;5004621;28;20510;-77
2023/06/12 02:13:24;;;;;;;15.90;9.48;;;;;;;;;;5006164;28;20038;-77
2023/06/12 02:15:50;;;;;;;15.20;8.93;;;;;;;;;;5005389;28;20038;-78
2023/06/12 02:18:17;;;;;;;13.60;8.30;;;;;;;;;;5004471;28;20034;-78
2023/06/12 02:20:43;;;;;;;11.95;8.52;;;;;;;;;;5006276;28;20045;-77
2023/06/12 02:23:10;;;;;;;13.25;7.95;;;;;;;;;;5009051;28;20045;-78
2023/06/12 02:25:37;;;;;;;9.77;6.50;;;;;;;;;;5007384;28;20057;-77
2023/06/12 02:28:03;;;;;;;9.65;6.43;;;;;;;;;;5014966;28;20045;-78
2023/06/12 02:30:30;;;;;;;12.32;6.43;;;;;;;;;;5002186;28;20080;-77
2023/06/12 02:32:57;;;;;;;9.27;6.25;;;;;;;;;;5014613;28;20049;-77
2023/06/12 02:35:24;;;;;;;10.43;6.65;;;;;;;;;;5012262;28;20053;-77
2023/06/12 02:37:51;;;;;;;15.02;7.20;;;;;;;;;;5019068;28;20048;-77
2023/06/12 02:40:18;;;;;;;10.57;6.93;;;;;;;;;;5015523;28;20117;-77
2023/06/12 02:42:45;;;;;;;14.27;8.07;;;;;;;;;;5002158;28;20042;-78
2023/06/12 02:45:13;;;;;;;13.13;7.93;;;;;;;;;;5015410;28;20196;-78
2023/06/12 02:47:40;;;;;;;11.23;7.70;;;;;;;;;;5017184;28;20387;-77
2023/06/12 02:50:09;;;;;;;14.27;8.48;;;;;;;;;;5014993;28;20124;-76
2023/06/12 02:52:45;;;;;;;16.10;8.07;;;;;;;;;;5014169;28;20553;-77
2023/06/12 02:55:14;;;;;;;15.00;8.00;;;;;;;;;;4997364;28;20041;-77
2023/06/12 02:57:42;;;;;;;12.35;8.18;;;;;;;;;;5013178;28;20092;-77
2023/06/12 03:00:09;;;;;;;12.85;8.00;;;;;;;;;;5013336;28;20506;-77
2023/06/12 03:02:44;;;;;;;13.95;7.50;;;;;;;;;;5011589;28;20397;-78
2023/06/12 03:05:16;;;;;;;10.18;6.90;;;;;;;;;;5010790;28;20509;-79
2023/06/12 03:07:43;;;;;;;14.75;7.95;;;;;;;;;;5011598;28;20138;-78
2023/06/12 03:10:14;;;;;;;14.02;7.85;;;;;;;;;;5010228;28;20540;-78
2023/06/12 03:12:43;;;;;;;11.85;7.80;;;;;;;;;;5011476;28;20049;-78
2023/06/12 03:15:10;;;;;;;13.07;6.82;;;;;;;;;;5011147;28;20062;-78
2023/06/12 03:17:37;;;;;;;8.45;6.45;;;;;;;;;;5010073;28;20117;-78
2023/06/12 03:20:06;;;;;;;11.50;6.28;;;;;;;;;;5009773;28;20041;-77
2023/06/12 03:22:35;;;;;;;11.75;6.38;;;;;;;;;;5011072;28;20053;-77
2023/06/12 03:25:02;;;;;;;12.95;6.25;;;;;;;;;;5013169;28;20054;-78
2023/06/12 03:27:29;;;;;;;11.70;6.80;;;;;;;;;;5011020;28;20066;-77
2023/06/12 03:29:57;;;;;;;8.77;6.00;;;;;;;;;;5009515;28;20045;-76
2023/06/12 03:32:24;;;;;;;8.45;5.70;;;;;;;;;;5007807;28;20061;-77
2023/06/12 03:34:54;;;;;;;10.55;6.47;;;;;;;;;;5007917;28;20070;-77
2023/06/12 03:37:22;;;;;;;10.70;6.45;;;;;;;;;;4991568;28;20042;-77
2023/06/12 03:39:48;;;;;;;11.02;5.80;;;;;;;;;;5006997;28;20632;-77
2023/06/12 03:42:16;;;;;;;10.63;6.20;;;;;;;;;;5006816;28;20133;-77
2023/06/12 03:44:54;;;;;;;14.30;6.10;;;;;;;;;;5007515;28;20093;-77
2023/06/12 03:47:23;;;;;;;13.32;5.82;;;;;;;;;;5007711;28;20050;-77
2023/06/12 03:49:51;;;;;;;14.85;6.80;;;;;;;;;;5007157;28;20576;-77
2023/06/12 03:52:18;;;;;;;11.27;6.55;;;;;;;;;;5012731;28;20132;-76
2023/06/12 03:54:49;;;;;;;11.93;6.40;;;;;;;;;;5010190;28;20057;-77
2023/06/12 03:57:15;;;;;;;10.45;5.90;;;;;;;;;;5007620;28;20080;-77
2023/06/12 03:59:42;;;;;;;10.75;6.20;;;;;;;;;;5007496;28;20049;-77
2023/06/12 04:02:09;;;;;;;11.07;6.93;;;;;;;;;;5038240;28;20592;-76
2023/06/12 04:04:36;;;;;;;9.32;6.45;;;;;;;;;;4988418;28;20133;-76
2023/06/12 04:07:02;;;;;;;10.85;6.22;;;;;;;;;;4989074;28;20058;-78
2023/06/12 04:09:30;;;;;;;10.05;6.10;;;;;;;;;;4972316;28;20534;-76
2023/06/12 04:11:57;;;;;;;11.02;6.43;;;;;;;;;;4986935;28;20062;-77
2023/06/12 04:14:24;;;;;;;12.23;6.85;;;;;;;;;;4987998;28;20054;-78
2023/06/12 04:16:51;;;;;;;11.35;7.10;;;;;;;;;;4989287;28;20049;-76
2023/06/12 04:19:17;;;;;;;10.18;6.85;;;;;;;;;;4986158;28;20038;-76
2023/06/12 04:21:45;;;;;;;11.13;6.40;;;;;;;;;;4988741;28;20042;-76
2023/06/12 04:24:15;;;;;;;10.27;7.00;;;;;;;;;;5004287;28;20605;-76
2023/06/12 04:26:44;;;;;;;14.65;6.93;;;;;;;;;;5006094;28;20041;-76
2023/06/12 04:29:12;;;;;;;11.13;7.05;;;;;;;;;;5005590;28;20053;-77
2023/06/12 04:31:39;;;;;;;15.10;8.23;;;;;;;;;;5005351;28;20145;-77
2023/06/12 04:34:07;;;;;;;12.55;7.65;;;;;;;;;;5005751;28;20045;-76
2023/06/12 04:36:37;;;;;;;14.07;7.82;;;;;;;;;;5007221;28;20133;-77
2023/06/12 04:39:10;;;;;;;13.48;7.75;;;;;;;;;;5006627;28;20387;-77
2023/06/12 04:41:38;;;;;;;11.45;7.07;;;;;;;;;;5007020;28;20461;-76
2023/06/12 04:44:06;;;;;;;15.13;7.28;;;;;;;;;;5007766;28;20029;-77
2023/06/12 04:46:37;;;;;;;13.85;7.18;;;;;;;;;;4994775;28;20065;-77
2023/06/12 04:49:03;;;;;;;11.60;7.70;;;;;;;;;;4998887;28;20046;-77
2023/06/12 04:51:30;;;;;;;12.82;7.72;;;;;;;;;;5014931;28;20140;-76
2023/06/12 04:54:01;;;;;;;13.13;7.32;;;;;;;;;;5013696;28;20048;-78
2023/06/12 04:56:31;;;;;;;12.55;8.10;;;;;;;;;;5008638;28;20046;-77
2023/06/12 04:59:00;;;;;;;13.07;7.88;;;;;;;;;;5010182;28;20092;-77
2023/06/12 05:01:27;;;;;;;13.15;7.88;;;;;;;;;;5004739;28;20104;-77
2023/06/12 05:03:54;;;;;;;13.75;8.48;;;;;;;;;;5005457;28;20799;-78
2023/06/12 05:06:21;;;;;;;12.68;7.93;;;;;;;;;;4989103;28;20149;-77
2023/06/12 05:08:48;;;;;;;10.68;7.22;;;;;;;;;;5005738;28;20454;-78
2023/06/12 05:11:14;;;;;;;13.98;7.82;;;;;;;;;;5004221;28;20132;-78
2023/06/12 05:13:41;;;;;;;15.18;7.68;;;;;;;;;;5004304;28;20486;-78
2023/06/12 05:16:08;;;;;;;12.20;7.53;;;;;;;;;;5005072;28;20041;-77
2023/06/12 05:18:35;;;;;;;11.82;7.22;;;;;;;;;;4996720;28;20576;-77
2023/06/12 05:21:03;;;;;;;15.52;7.45;;;;;;;;;;4986232;28;20046;-78
2023/06/12 05:23:29;;;;;;;12.32;6.85;;;;;;;;;;5018202;28;20053;-78
2023/06/12 05:25:56;;;;;;;15.93;7.07;;;;;;;;;;5022629;28;20464;-78
2023/06/12 05:28:25;;;;;;;9.10;6.05;;;;;;;;;;5024498;28;20053;-78
2023/06/12 05:30:52;;;;;;;11.38;5.80;;;;;;;;;;4996575;28;20434;-78
2023/06/12 05:33:18;;;;;;;8.77;5.20;;;;;;;;;;4987964;28;20446;-77
2023/06/12 05:35:47;;;;;;;13.30;5.10;;;;;;;;;;5003794;28;20045;-78
2023/06/12 05:38:13;;;;;;;9.63;4.68;;;;;;;;;;5004614;28;20050;-78
2023/06/12 05:40:40;;;;;;;10.57;5.25;;;;;;;;;;4999341;28;20072;-78
2023/06/12 05:43:07;;;;;;;8.77;4.65;;;;;;;;;;4988865;28;20098;-78
2023/06/12 05:45:35;;;;;;;9.90;4.70;;;;;;;;;;5003635;28;20085;-78
2023/06/12 05:48:02;;;;;;;13.30;4.63;;;;;;;;;;5006289;28;20153;-80
2023/06/12 05:50:28;;;;;;;7.82;4.80;;;;;;;;;;5006182;28;20576;-78
2023/06/12 05:52:55;;;;;;;14.57;4.30;;;;;;;;;;5011065;28;20049;-78
2023/06/12 05:55:22;;;;;;;12.40;4.65;;;;;;;;;;5006230;28;20057;-78
2023/06/12 05:57:49;;;;;;;10.45;4.78;;;;;;;;;;4988278;28;20076;-78
2023/06/12 06:00:21;;;;;;;8.95;4.95;;;;;;;;;;4987772;28;20096;-78
2023/06/12 06:02:50;;;;;;;8.43;4.70;;;;;;;;;;5001732;28;20042;-78
2023/06/12 06:05:30;;;;;;;13.52;4.68;;;;;;;;;;5001758;28;20047;-79
2023/06/12 06:08:03;;;;;;;10.18;4.72;;;;;;;;;;5002878;28;20105;-78
2023/06/12 06:10:31;;;;;;;17.95;4.90;;;;;;;;;;5001531;28;20224;-79
2023/06/12 06:12:58;;;;;;;8.88;4.57;;;;;;;;;;5003503;28;20070;-80
2023/06/12 06:15:25;;;;;;;7.82;4.65;;;;;;;;;;4989198;28;20050;-78
2023/06/12 06:17:52;;;;;;;11.75;4.45;;;;;;;;;;5005660;28;20049;-76
2023/06/12 06:20:22;;;;;;;7.57;4.38;;;;;;;;;;5038839;28;20446;-78
2023/06/12 06:22:52;;;;;;;12.82;4.40;;;;;;;;;;5023600;28;20046;-79
2023/06/12 06:25:19;;;;;;;9.32;4.60;;;;;;;;;;5037590;28;20062;-78
2023/06/12 06:27:46;;;;;;;12.38;4.53;;;;;;;;;;5006831;28;20138;-78
2023/06/12 06:30:12;;;;;;;10.60;4.45;;;;;;;;;;5020262;28;20057;-78
2023/06/12 06:32:40;;;;;;;16.00;4.35;;;;;;;;;;5037707;28;20498;-78
2023/06/12 06:35:07;;;;;;;14.35;4.68;;;;;;;;;;5005459;28;20137;-78
2023/06/12 06:37:35;;;;;;;7.53;4.30;;;;;;;;;;5007518;28;20049;-79
2023/06/12 06:40:04;;;;;;;10.18;4.68;;;;;;;;;;5023855;28;20037;-80
2023/06/12 06:42:31;;;;;;;9.23;4.82;;;;;;;;;;4996147;28;20080;-79
2023/06/12 06:45:05;;;;;;;9.18;4.57;;;;;;;;;;5006560;28;20061;-81
2023/06/12 06:47:33;;;;;;;9.55;5.18;;;;;;;;;;5006923;28;20054;-77
2023/06/12 06:50:01;;;;;;;9.13;4.60;;;;;;;;;;5021104;28;20498;-76
2023/06/12 06:52:29;;;;;;;7.57;4.20;;;;;;;;;;5009803;28;20042;-78
2023/06/12 06:54:57;;;;;;;10.75;4.45;;;;;;;;;;5008308;28;20045;-79
2023/06/12 06:57:26;;;;;;;7.63;4.10;;;;;;;;;;5008046;28;20065;-77
2023/06/12 06:59:54;;;;;;;10.52;4.05;;;;;;;;;;4993315;28;20045;-78
2023/06/12 07:02:21;;;;;;;7.82;4.05;;;;;;;;;;5012469;28;20068;-78
2023/06/12 07:04:50;;;;;;;11.70;4.05;;;;;;;;;;5006975;28;20061;-79
2023/06/12 07:07:17;;;;;;;9.82;3.65;;;;;;;;;;5006917;28;20054;-78
2023/06/12 07:09:45;;;;;;;9.52;3.90;;;;;;;;;;5006144;28;20038;-78
2023/06/12 07:12:12;;;;;;;9.77;4.30;;;;;;;;;;5003650;28;20514;-78
2023/06/12 07:14:40;;;;;;;9.27;3.78;;;;;;;;;;4991277;28;20497;-81
2023/06/12 07:17:06;;;;;;;10.38;3.45;;;;;;;;;;5010690;28;20505;-79
2023/06/12 07:19:33;;;;;;;6.57;3.40;;;;;;;;;;5015445;28;20048;-80
2023/06/12 07:22:00;;;;;;;12.85;3.55;;;;;;;;;;5011750;28;20245;-79
2023/06/12 07:24:27;;;;;;;9.30;3.45;;;;;;;;;;4993456;28;20442;-79
2023/06/12 07:26:53;;;;;;;5.50;3.22;;;;;;;;;;5011294;28;20152;-78
2023/06/12 07:29:22;;;;;;;11.85;3.67;;;;;;;;;;5011054;28;20057;-78
2023/06/12 07:31:49;;;;;;;5.68;3.33;;;;;;;;;;5009753;28;20046;-79
2023/06/12 07:34:16;;;;;;;6.20;3.40;;;;;;;;;;4994364;28;20077;-79
2023/06/12 07:36:43;;;;;;;8.88;3.20;;;;;;;;;;4994074;28;20455;-80
2023/06/12 07:39:10;;;;;;;7.30;3.15;;;;;;;;;;5010564;28;20053;-78
2023/06/12 07:41:39;;;;;;;7.88;3.25;;;;;;;;;;4992561;28;20073;-80
2023/06/12 07:44:06;;;;;;;6.85;3.38;;;;;;;;;;5010383;28;20046;-78
2023/06/12 07:46:33;;;;;;;6.38;3.60;;;;;;;;;;5010852;28;20108;-78
2023/06/12 07:49:00;;;;;;;5.47;2.80;;;;;;;;;;4992681;28;20056;-78
2023/06/12 07:51:28;;;;;;;6.70;3.35;;;;;;;;;;5011106;28;20044;-80
2023/06/12 07:53:55;;;;;;;8.80;3.25;;;;;;;;;;4995855;28;20077;-80
2023/06/12 07:56:24;;;;;;;9.25;2.83;;;;;;;;;;5009411;28;20061;-78
2023/06/12 07:58:54;;;;;;;12.48;3.05;;;;;;;;;;4994689;28;20041;-78
2023/06/12 08:01:22;;;;;;;8.65;2.92;;;;;;;;;;5007020;28;20056;-79
2023/06/12 08:03:50;;;;;;;4.90;2.92;;;;;;;;;;5009282;28;20045;-79
2023/06/12 08:06:17;;;;;;;10.05;3.10;;;;;;;;;;5009333;28;20069;-78
2023/06/12 08:08:46;;;;;;;7.57;3.17;;;;;;;;;;5009953;28;20572;-78
2023/06/12 08:11:13;;;;;;;4.25;2.70;;;;;;;;;;5007381;28;20486;-81
2023/06/12 08:13:43;;;;;;;5.85;2.78;;;;;;;;;;5008625;28;20127;-80
2023/06/12 08:16:10;;;;;;;9.98;3.17;;;;;;;;;;5008555;28;20141;-79
2023/06/12 08:18:37;;;;;;;9.98;2.95;;;;;;;;;;5007934;28;20433;-79
2023/06/12 08:21:04;;;;;;;7.90;3.25;;;;;;;;;;5007328;28;20050;-79
2023/06/12 08:23:31;;;;;;;7.90;3.03;;;;;;;;;;5008012;28;20042;-79
2023/06/12 08:25:57;;;;;;;7.60;3.20;;;;;;;;;;5007281;28;21134;-79
2023/06/12 08:28:27;;;;;;;6.88;2.80;;;;;;;;;;5010417;28;20057;-79
2023/06/12 08:30:57;;;;;;;4.50;2.90;;;;;;;;;;5011619;28;20072;-79
2023/06/12 08:33:24;;;;;;;8.57;2.97;;;;;;;;;;5010490;28;20161;-80
2023/06/12 08:35:51;;;;;;;6.72;2.60;;;;;;;;;;5010907;28;20038;-79
2023/06/12 08:38:18;;;;;;;5.47;3.00;;;;;;;;;;5013940;28;20041;-80
2023/06/12 08:40:52;;;;;;;5.80;2.97;;;;;;;;;;5014689;28;20699;-81
2023/06/12 08:43:19;;;;;;;5.07;2.67;;;;;;;;;;5019649;28;20070;-80
2023/06/12 08:45:47;;;;;;;5.18;3.00;;;;;;;;;;5017739;28;20072;-79
2023/06/12 08:48:16;;;;;;;5.28;2.72;;;;;;;;;;5010240;28;20107;-78
2023/06/12 08:50:43;;;;;;;12.05;2.88;;;;;;;;;;5010393;28;20125;-79
2023/06/12 08:53:10;;;;;;;8.15;2.72;;;;;;;;;;5013134;28;20046;-80
2023/06/12 08:55:39;;;;;;;7.63;2.42;;;;;;;;;;5004591;28;20038;-78
2023/06/12 08:58:07;;;;;;;6.55;3.08;;;;;;;;;;5004222;28;20043;-78
2023/06/12 09:00:34;;;;;;;6.00;2.78;;;;;;;;;;4990055;28;20066;-78
2023/06/12 09:03:04;;;;;;;4.45;2.33;;;;;;;;;;5012245;28;20048;-78
2023/06/12 09:05:34;;;;;;;3.72;2.40;;;;;;;;;;5030258;28;20050;-78
2023/06/12 09:08:02;;;;;;;5.38;2.75;;;;;;;;;;5032145;28;20041;-77
2023/06/12 09:10:31;;;;;;;10.43;2.50;;;;;;;;;;5029716;28;20813;-79
2023/06/12 09:13:05;;;;;;;5.10;2.65;;;;;;;;;;5012004;28;20065;-78
2023/06/12 09:15:32;;;;;;;9.50;2.47;;;;;;;;;;5029546;28;20049;-77
2023/06/12 09:17:58;;;;;;;6.10;2.70;;;;;;;;;;5027624;28;20690;-78
2023/06/12 09:20:27;;;;;;;8.63;2.70;;;;;;;;;;5027824;28;20049;-78
2023/06/12 09:23:09;;;;;;;7.40;2.60;;;;;;;;;;5030256;28;20053;-78
2023/06/12 09:25:39;;;;;;;8.13;2.90;;;;;;;;;;5029783;28;20041;-78
2023/06/12 09:28:08;;;;;;;6.80;3.10;;;;;;;;;;5028349;28;20042;-77
2023/06/12 09:30:41;;;;;;;8.80;3.20;;;;;;;;;;5026321;28;20626;-79
2023/06/12 09:33:08;;;;;;;4.80;2.88;;;;;;;;;;5027429;28;20556;-79
2023/06/12 09:35:51;;;;;;;5.38;2.95;;;;;;;;;;5025715;28;20200;-78
2023/06/12 09:38:17;;;;;;;5.20;2.70;;;;;;;;;;5008999;28;20754;-79
2023/06/12 09:40:53;;;;;;;5.50;2.83;;;;;;;;;;5007844;28;20030;-80
2023/06/12 09:43:20;;;;;;;8.02;3.00;;;;;;;;;;5018946;28;20076;-79
2023/06/12 09:45:49;;;;;;;5.32;3.22;;;;;;;;;;5012630;28;20049;-80
2023/06/12 09:48:16;;;;;;;6.25;3.00;;;;;;;;;;5007128;28;20145;-79
2023/06/12 09:50:43;;;;;;;8.40;3.60;;;;;;;;;;5008369;28;20049;-78
2023/06/12 09:53:12;;;;;;;4.22;3.17;;;;;;;;;;5013600;28;20050;-79
2023/06/12 09:55:40;;;;;;;11.25;3.42;;;;;;;;;;5006668;28;20605;-79
2023/06/12 09:58:08;;;;;;;7.28;3.35;;;;;;;;;;5006891;28;20049;-79
2023/06/12 10:00:35;;;;;;;11.30;3.45;;;;;;;;;;5007598;28;20042;-80
2023/06/12 10:03:05;;;;;;;5.47;3.30;;;;;;;;;;5007159;28;20134;-80
2023/06/12 10:05:35;;;;;;;6.82;3.80;;;;;;;;;;5007295;28;20049;-79
2023/06/12 10:08:03;;;;;;;5.55;3.35;;;;;;;;;;5007890;28;20473;-80
2023/06/12 10:10:31;;;;;;;7.47;3.47;;;;;;;;;;5008088;28;20935;-80
2023/06/12 10:12:59;;;;;;;9.48;3.60;;;;;;;;;;4999004;28;20050;-79
2023/06/12 10:15:26;;;;;;;8.30;3.72;;;;;;;;;;5006855;28;20069;-79
2023/06/12 10:17:53;;;;;;;5.18;3.30;;;;;;;;;;5006863;28;20105;-78
2023/06/12 10:20:20;;;;;;;7.43;3.90;;;;;;;;;;5008030;28;20857;-80
2023/06/12 10:22:47;;;;;;;9.57;3.55;;;;;;;;;;5010105;28;20568;-79
2023/06/12 10:25:14;;;;;;;6.15;3.35;;;;;;;;;;5009896;28;20045;-79
2023/06/12 10:27:42;;;;;;;6.43;3.40;;;;;;;;;;5008743;28;20057;-78
2023/06/12 10:30:12;;;;;;;5.45;3.47;;;;;;;;;;5007891;28;20050;-79
2023/06/12 10:32:41;;;;;;;7.20;3.35;;;;;;;;;;5023468;28;20076;-78
2023/06/12 10:35:07;;;;;;;5.07;3.60;;;;;;;;;;5026269;28;20030;-80
2023/06/12 10:37:34;;;;;;;5.40;3.10;;;;;;;;;;5013440;28;20042;-79
2023/06/12 10:40:15;;;;;;;5.22;3.22;;;;;;;;;;5008418;28;20088;-81
2023/06/12 10:42:49;;;;;;;8.07;4.00;;;;;;;;;;5011488;28;20674;-80
2023/06/12 10:45:15;;;;;;;8.50;3.40;;;;;;;;;;5016946;28;20208;-80
2023/06/12 10:47:57;;;;;;;8.35;3.13;;;;;;;;;;5017123;28;20153;-79
2023/06/12 10:50:28;;;;;;;9.77;3.30;;;;;;;;;;5020083;28;20053;-79
2023/06/12 10:52:55;;;;;;;6.03;3.17;;;;;;;;;;5020378;28;20049;-80
2023/06/12 10:55:23;;;;;;;6.45;3.25;;;;;;;;;;5015823;28;20034;-80
2023/06/12 10:57:50;;;;;;;13.95;3.50;;;;;;;;;;5013933;28;20045;-81
2023/06/12 11:00:17;;;;;;;6.07;3.30;;;;;;;;;;5011643;28;20046;-79
2023/06/12 11:02:57;;;;;;;8.63;3.47;;;;;;;;;;5010884;28;20112;-78
2023/06/12 11:05:28;;;;;;;13.50;3.35;;;;;;;;;;5012265;28;20046;-78
2023/06/12 11:07:58;;;;;;;7.07;3.40;;;;;;;;;;5011324;28;20140;-80
2023/06/12 11:10:26;;;;;;;5.32;3.20;;;;;;;;;;5008767;28;20178;-80
2023/06/12 11:12:53;;;;;;;6.15;3.38;;;;;;;;;;5009797;28;20042;-82
2023/06/12 11:15:22;;;;;;;7.40;3.85;;;;;;;;;;5009511;28;20115;-79
2023/06/12 11:17:50;;;;;;;4.55;3.22;;;;;;;;;;5041930;28;20065;-79
2023/06/12 11:20:19;;;;;;;8.15;3.22;;;;;;;;;;5010216;28;20088;-81
2023/06/12 11:22:47;;;;;;;5.05;2.90;;;;;;;;;;5011673;28;20059;-78
2023/06/12 11:25:13;;;;;;;8.25;3.50;;;;;;;;;;5009973;28;20057;-80
2023/06/12 11:27:42;;;;;;;7.68;3.28;;;;;;;;;;5008676;28;20052;-80
2023/06/12 11:30:09;;;;;;;5.03;3.40;;;;;;;;;;5009370;28;20042;-79
2023/06/12 11:32:56;;;;;;;7.95;2.92;;;;;;;;;;5009502;28;20100;-80
2023/06/12 11:35:23;;;;;;;8.18;2.97;;;;;;;;;;5041089;28;20139;-82
2023/06/12 11:37:52;;;;;;;4.30;3.17;;;;;;;;;;5009162;28;20058;-78
2023/06/12 11:40:26;;;;;;;5.65;3.35;;;;;;;;;;5008752;28;20064;-79
2023/06/12 11:42:53;;;;;;;5.88;2.97;;;;;;;;;;5013768;28;20042;-78
2023/06/12 11:45:20;;;;;;;10.27;3.58;;;;;;;;;;5014585;28;20046;-77
2023/06/12 11:47:47;;;;;;;7.82;2.97;;;;;;;;;;5031636;28;20022;-78
2023/06/12 11:50:19;;;;;;;4.28;3.25;;;;;;;;;;5034745;28;20037;-78
2023/06/12 11:52:46;;;;;;;5.18;3.53;;;;;;;;;;5036055;28;20129;-77
2023/06/12 11:55:16;;;;;;;4.65;2.85;;;;;;;;;;5013769;28;20049;-78
2023/06/12 11:57:48;;;;;;;6.40;3.30;;;;;;;;;;5012639;28;20038;-78
2023/06/12 12:00:18;;;;;;;3.90;3.10;;;;;;;;;;5014000;28;20050;-80
2023/06/12 12:02:49;;;;;;;4.00;3.10;;;;;;;;;;5011942;28;20133;-80
2023/06/12 12:05:20;;;;;;;4.80;3.10;;;;;;;;;;5012745;28;20111;-78
2023/06/12 12:07:56;;;;;;;7.80;3.33;;;;;;;;;;5011345;28;20125;-78
2023/06/12 12:10:23;;;;;;;5.10;3.28;;;;;;;;;;5010621;28;20046;-78
2023/06/12 12:12:50;;;;;;;3.70;2.92;;;;;;;;;;5009787;28;20502;-77
2023/06/12 12:15:18;;;;;;;6.07;3.35;;;;;;;;;;5010500;28;20070;-78
2023/06/12 12:17:45;;;;;;;5.30;3.20;;;;;;;;;;5011160;28;20105;-79
2023/06/12 12:20:23;;;;;;;8.10;3.28;;;;;;;;;;5007606;28;20502;-78
2023/06/12 12:22:53;;;;;;;6.45;3.30;;;;;;;;;;5010119;28;20084;-77
2023/06/12 12:25:21;;;;;;;6.05;3.20;;;;;;;;;;5012970;28;20053;-79
2023/06/12 12:27:51;;;;;;;7.20;3.22;;;;;;;;;;5010028;28;20092;-81
2023/06/12 12:30:18;;;;;;;6.50;3.20;;;;;;;;;;5013632;28;20100;-79
2023/06/12 12:32:46;;;;;;;5.20;3.13;;;;;;;;;;5008682;28;20042;-77
2023/06/12 12:35:14;;;;;;;9.88;3.45;;;;;;;;;;5015672;28;20080;-80
2023/06/12 12:37:41;;;;;;;4.38;3.10;;;;;;;;;;5015920;28;20046;-79
2023/06/12 12:40:13;;;;;;;7.70;3.50;;;;;;;;;;5012113;28;20076;-79
2023/06/12 12:42:44;;;;;;;5.28;3.05;;;;;;;;;;5016598;28;20073;-81
2023/06/12 12:45:12;;;;;;;4.03;3.20;;;;;;;;;;5011873;28;20473;-78
2023/06/12 12:47:47;;;;;;;4.78;2.97;;;;;;;;;;5009809;28;20046;-78
2023/06/12 12:50:18;;;;;;;6.03;3.10;;;;;;;;;;5015015;28;20046;-79
2023/06/12 12:52:49;;;;;;;4.03;3.20;;;;;;;;;;5026772;28;20050;-79
2023/06/12 12:55:17;;;;;;;4.78;3.15;;;;;;;;;;5009656;28;20120;-79
2023/06/12 12:57:43;;;;;;;6.75;3.20;;;;;;;;;;5008932;28;20441;-79
2023/06/12 13:00:12;;;;;;;7.13;3.42;;;;;;;;;;5012835;28;20139;-80
2023/06/12 13:02:41;;;;;;;5.85;3.30;;;;;;;;;;5012617;28;20132;-78
2023/06/12 13:05:09;;;;;;;10.50;3.05;;;;;;;;;;4993822;28;20041;-79
2023/06/12 13:07:38;;;;;;;3.20;2.80;;;;;;;;;;5024948;28;20049;-79
2023/06/12 13:10:09;;;;;;;6.25;3.17;;;;;;;;;;5030445;28;20045;-78
2023/06/12 13:12:37;;;;;;;5.82;3.05;;;;;;;;;;5031589;28;20045;-80
2023/06/12 13:15:04;;;;;;;3.83;3.00;;;;;;;;;;5031285;28;20041;-78
2023/06/12 13:17:31;;;;;;;11.52;3.15;;;;;;;;;;5029114;28;20068;-78
2023/06/12 13:19:58;;;;;;;7.45;3.40;;;;;;;;;;5030434;28;20106;-79
2023/06/12 13:22:24;;;;;;;9.32;3.10;;;;;;;;;;5018432;28;20046;-77
2023/06/12 13:24:51;;;;;;;13.20;3.53;;;;;;;;;;5016472;28;20050;-80
2023/06/12 13:27:17;;;;;;;5.40;3.20;;;;;;;;;;5016279;28;20038;-79
2023/06/12 13:29:44;;;;;;;6.28;3.22;;;;;;;;;;5011265;28;20054;-79
2023/06/12 13:32:12;;;;;;;8.57;3.03;;;;;;;;;;5007903;28;20495;-80
2023/06/12 13:34:38;;;;;;;3.38;3.00;;;;;;;;;;5008789;28;20046;-79
2023/06/12 13:37:06;;;;;;;14.30;3.45;;;;;;;;;;5012802;28;20356;-77
2023/06/12 13:39:33;;;;;;;3.95;2.70;;;;;;;;;;5010851;28;20052;-79
2023/06/12 13:42:01;;;;;;;6.70;3.00;;;;;;;;;;4980867;28;20053;-78
2023/06/12 13:44:28;;;;;;;5.07;2.60;;;;;;;;;;5030790;28;20100;-79
2023/06/12 13:46:56;;;;;;;9.45;3.83;;;;;;;;;;5010463;28;20129;-79
2023/06/12 13:49:23;;;;;;;10.70;3.75;;;;;;;;;;5028119;28;20050;-81
2023/06/12 13:51:50;;;;;;;6.35;2.92;;;;;;;;;;5031485;28;20050;-78
2023/06/12 13:54:18;;;;;;;4.13;2.90;;;;;;;;;;5010117;28;20046;-79
2023/06/12 13:56:45;;;;;;;3.97;2.90;;;;;;;;;;5006144;28;20056;-79
2023/06/12 13:59:13;;;;;;;4.43;2.95;;;;;;;;;;5007699;28;20077;-77
2023/06/12 14:01:40;;;;;;;3.83;2.88;;;;;;;;;;5004769;28;20056;-80
2023/06/12 14:04:07;;;;;;;4.32;3.08;;;;;;;;;;5011520;28;20037;-79
2023/06/12 14:06:34;;;;;;;4.18;3.17;;;;;;;;;;5000258;28;20451;-78
2023/06/12 14:09:01;;;;;;;3.20;2.70;;;;;;;;;;5006586;28;20042;-80
2023/06/12 14:11:28;;;;;;;3.67;2.92;;;;;;;;;;5007524;28;20046;-80
2023/06/12 14:13:56;;;;;;;8.02;3.00;;;;;;;;;;5008596;28;20084;-79
2023/06/12 14:16:23;;;;;;;7.00;2.92;;;;;;;;;;5011179;28;20491;-80
2023/06/12 14:18:51;;;;;;;8.90;2.90;;;;;;;;;;5007706;28;20124;-80
2023/06/12 14:21:17;;;;;;;3.35;2.55;;;;;;;;;;5006242;28;20108;-78
2023/06/12 14:23:47;;;;;;;5.72;2.53;;;;;;;;;;5010498;28;20406;-80
2023/06/12 14:26:14;;;;;;;4.35;3.00;;;;;;;;;;5010070;28;20100;-78
2023/06/12 14:28:41;;;;;;;5.20;2.53;;;;;;;;;;4993319;28;20054;-79
2023/06/12 14:31:08;;;;;;;3.33;2.70;;;;;;;;;;5009273;28;20061;-80
2023/06/12 14:33:35;;;;;;;4.53;2.92;;;;;;;;;;4992089;28;20121;-81
2023/06/12 14:36:02;;;;;;;8.93;2.90;;;;;;;;;;5007714;28;20121;-80
2023/06/12 14:38:28;;;;;;;3.70;2.90;;;;;;;;;;5018125;28;20168;-81
2023/06/12 14:40:55;;;;;;;5.68;2.80;;;;;;;;;;5011752;28;20058;-79
2023/06/12 14:43:22;;;;;;;6.70;2.97;;;;;;;;;;5014097;28;20088;-80
2023/06/12 14:45:49;;;;;;;4.97;3.03;;;;;;;;;;5015726;28;20109;-79